Nearby METAR Reports

(scroll for additional cities)

 

KPSP - Palm Springs, California, USA
Distance from station: WNW 7mi, 11km
Updated: Thu, 16-Sep-2021 1:53pm PDT
Clear
Clear
 Wind from NW
Wind: NW 9 mph , 15 km/h, Gust: 21 mph , 33 km/h
Temperature: 102°F , 39°C
Dew Point: 16°F , -9°C
Humidity: 4%
Barometer: 29.71 inHg , 1006.1 hPa
Clouds: Clear
Visibility: 10 miles , 16 km
2021/09/16 20:53 KPSP 162053Z 32008G18KT 10SM CLR 39/M09 A2971 RMK AO2 SLP056 T03941094 58015 $
KTRM - Thermal/Palm Spg, California, USA
Distance from station: SE 16mi, 26km
Updated: Thu, 16-Sep-2021 1:52pm PDT
Clear
Clear
 Wind from ESE
Wind: ESE 8 mph , 13 km/h
Temperature: 102°F , 39°C
Dew Point: 32°F , 0°C
Humidity: 9%
Barometer: 29.66 inHg , 1004.4 hPa
Clouds: Clear
Visibility: 10 miles , 16 km
2021/09/16 20:52 KTRM 162052Z AUTO 12007KT 10SM CLR 39/00 A2966 RMK AO2 SLP047 T03890000 58017
 
KNXP - Twentynine Palms, California, USA
Distance from station: NNE 37mi, 60km
Updated: Thu, 16-Sep-2021 1:56pm PDT
Clear
Clear
 Wind from calm
Wind: Calm
Temperature: 97°F , 36°C
Dew Point: -0°F , -18°C
Humidity: 2%
Barometer: 29.86 inHg , 1011.2 hPa
Clouds: Clear
Visibility: 10 miles , 16 km
2021/09/16 20:56 KNXP 162056Z AUTO 00000KT 10SM CLR 36/M18 A2986 RMK AO2 SLP073 T03611183 58015
KL35 - Big Bear City, California, USA
Distance from station: NW 43mi, 69km
Updated: Thu, 16-Sep-2021 1:55pm PDT
Clear
Clear
 Wind from NW
Wind: NW 8 mph , 13 km/h
Temperature: 73°F , 23°C
Dew Point: 9°F , -13°C
Humidity: 8%
Barometer: 30.14 inHg , 1020.7 hPa
Clouds: Clear
Visibility: 10 miles , 16 km
2021/09/16 20:55 KL35 162055Z AUTO 31007KT 10SM CLR 23/M13 A3014 RMK AO2
 
KF70 - Murrieta/Temecula, California, USA
Distance from station: WSW 45mi, 73km
Updated: Thu, 16-Sep-2021 2:15pm PDT
Clear
Clear
 Wind from SW
Wind: SW 10 mph , 17 km/h, Gust: 18 mph , 30 km/h
Temperature: 82°F , 28°C
Dew Point: 48°F , 9°C
Humidity: 30%
Barometer: 29.86 inHg , 1011.2 hPa
Clouds: Clear
Visibility: 10 miles , 16 km
2021/09/16 21:15 KF70 162115Z AUTO 22009G16KT 10SM CLR 28/09 A2986 RMK AO2
KRIV - Riverside/March, California, USA
Distance from station: W 51mi, 82km
Updated: Thu, 16-Sep-2021 1:58pm PDT
Clear
Clear
 Wind from NW
Wind: NW 9 mph , 15 km/h
Temperature: 84°F , 29°C
Dew Point: 52°F , 11°C
Humidity: 33%
Barometer: 29.86 inHg , 1011.2 hPa
Clouds: Clear
Visibility: 10 miles , 16 km
2021/09/16 20:58 KRIV 162058Z 31008KT 10SM CLR 29/11 A2986 RMK AO2A SLPNO ALSTG ESTMD
 
KSBD - San Bernardino, California, USA
Distance from station: WNW 54mi, 86km
Updated: Thu, 16-Sep-2021 1:59pm PDT
Haze, Clear
Haze, Clear
 Wind from calm
Wind: Calm
Temperature: 88°F , 31°C
Dew Point: 39°F , 4°C
Humidity: 18%
Barometer: 29.85 inHg , 1010.8 hPa
Summary: Haze
Clouds: Clear
Visibility: 5 miles , 8 km
2021/09/16 20:59 KSBD 162059Z 00000KT 5SM HZ CLR 31/04 A2985
KRNM - Ramona, California, USA
Distance from station: SSW 60mi, 96km
Updated: Thu, 16-Sep-2021 1:53pm PDT
Clear
Clear
 Wind from W
Wind: W 12 mph , 19 km/h
Temperature: 81°F , 27°C
Dew Point: 54°F , 12°C
Humidity: 39%
Barometer: 29.87 inHg , 1011.5 hPa
Clouds: Clear
Visibility: 10 miles , 16 km
2021/09/16 20:53 KRNM 162053Z 26010KT 10SM CLR 27/12 A2987 RMK AO2 SLP102 T02720122 58008
 
KRAL - Riverside, California, USA
Distance from station: W 62mi, 100km
Updated: Thu, 16-Sep-2021 1:53pm PDT
Clear
Clear
 Wind from WSW
Wind: WSW 7 mph , 11 km/h
Temperature: 82°F , 28°C
Dew Point: 48°F , 9°C
Humidity: 30%
Barometer: 29.84 inHg , 1010.5 hPa
Clouds: Clear
Visibility: 10 miles , 16 km
2021/09/16 20:53 KRAL 162053Z 24006KT 10SM CLR 28/09 A2984 RMK AO2 SLP091 T02830089 56018
KOKB - Oceanside, California, USA
Distance from station: SW 68mi, 109km
Updated: Thu, 16-Sep-2021 1:52pm PDT
Clear
Clear
 Wind from WSW
Wind: WSW 10 mph , 17 km/h
Temperature: 75°F , 24°C
Dew Point: 57°F , 14°C
Humidity: 54%
Barometer: 29.86 inHg , 1011.2 hPa
Clouds: Clear
Visibility: 10 miles , 16 km
2021/09/16 20:52 KOKB 162052Z AUTO 25009KT 10SM CLR 24/14 A2986 RMK AO2 SLP112 T02390139 58007
 
KONT - Ontario, California, USA
Distance from station: WNW 71mi, 114km
Updated: Thu, 16-Sep-2021 1:53pm PDT
Clear
Clear
 Wind from NW
Wind: NW 7 mph , 11 km/h
Temperature: 84°F , 29°C
Dew Point: 46°F , 8°C
Humidity: 27%
Barometer: 29.85 inHg , 1010.8 hPa
Clouds: Clear
Visibility: 10 miles , 16 km
2021/09/16 20:53 KONT 162053Z 31006KT 10SM CLR 29/08 A2985 RMK AO2 SLP093 T02940078 57017
KNJK - El Centro Naf, California, USA
Distance from station: SSE 78mi, 126km
Updated: Thu, 16-Sep-2021 1:56pm PDT
Clear
Clear
 Wind from S
Wind: S 8 mph , 13 km/h
Temperature: 106°F , 41°C
Dew Point: 32°F , 0°C
Humidity: 8%
Barometer: 29.69 inHg , 1005.4 hPa
Clouds: Clear
Visibility: 10 miles , 16 km
2021/09/16 20:56 KNJK 162056Z 17007KT 120V190 10SM CLR 41/00 A2969 RMK AO2 SLP068 T04060000 57020 $
 
KSEE - San Diego/Santee, California, USA
Distance from station: SSW 74mi, 120km
Updated: Thu, 16-Sep-2021 1:47pm PDT
Clear
Clear
 Wind from W
Wind: W 10 mph , 17 km/h
Temperature: 79°F , 26°C
Dew Point: 55°F , 13°C
Humidity: 45%
Barometer: 29.86 inHg , 1011.2 hPa
Clouds: Clear
Visibility: 10 miles , 16 km
2021/09/16 20:47 KSEE 162047Z 28009KT 10SM SKC 26/13 A2986
KCNO - Chino, California, USA
Distance from station: W 72mi, 116km
Updated: Thu, 16-Sep-2021 1:53pm PDT
Clear
Clear
 Wind from SW
Wind: SW 9 mph , 15 km/h
Temperature: 88°F , 31°C
Dew Point: 54°F , 12°C
Humidity: 31%
Barometer: 29.85 inHg , 1010.8 hPa
Clouds: Clear
Visibility: 10 miles , 16 km
2021/09/16 20:53 KCNO 162053Z 23008KT 10SM CLR 31/12 A2985 RMK AO2 SLP103 T03060122 56020

Metar display script from Saratoga-Weather.org